Time;durP1;ratioP1;P1;durP2;ratioP2;P2;SDS_P1;SDS_P2;PMS_P1;PMS_P2;Temp;Humidity;BMP_temperature;BMP_pressure;BME280_temperature;BME280_humidity;BME280_pressure;Samples;Min_cycle;Max_cycle;Signal;HPM_P1;HPM_P2
2022/09/23 00:01:47;;;;;;;31.37;20.33;;;;;;;;;;764421;183;919151;-58
2022/09/23 00:04:13;;;;;;;32.17;19.17;;;;;;;;;;767178;180;815845;-58
2022/09/23 00:06:39;;;;;;;24.17;15.30;;;;;;;;;;779954;180;919394;-58
2022/09/23 00:09:04;;;;;;;22.70;13.00;;;;;;;;;;773118;177;809430;-59
2022/09/23 00:11:30;;;;;;;15.38;11.12;;;;;;;;;;762009;183;918453;-59
2022/09/23 00:13:56;;;;;;;23.50;13.47;;;;;;;;;;758593;184;920224;-58
2022/09/23 00:16:22;;;;;;;21.60;13.50;;;;;;;;;;769536;180;919535;-58
2022/09/23 00:18:49;;;;;;;20.83;12.47;;;;;;;;;;771467;180;919367;-59
2022/09/23 00:21:14;;;;;;;18.33;13.50;;;;;;;;;;767118;180;917812;-58
2022/09/23 00:23:39;;;;;;;22.03;14.00;;;;;;;;;;756183;183;919240;-58
2022/09/23 00:26:05;;;;;;;23.17;13.10;;;;;;;;;;755761;183;919074;-58
2022/09/23 00:28:31;;;;;;;19.13;13.03;;;;;;;;;;763224;183;920776;-59
2022/09/23 00:30:57;;;;;;;22.60;13.53;;;;;;;;;;766358;182;921895;-59
2022/09/23 00:33:23;;;;;;;21.07;12.10;;;;;;;;;;763699;180;920736;-59
2022/09/23 00:35:49;;;;;;;21.50;12.40;;;;;;;;;;773495;177;917457;-58
2022/09/23 00:38:14;;;;;;;18.37;11.30;;;;;;;;;;777565;180;917976;-58
2022/09/23 00:40:41;;;;;;;21.23;12.67;;;;;;;;;;769496;180;921985;-58
2022/09/23 00:43:07;;;;;;;22.70;13.33;;;;;;;;;;755538;184;819018;-58
2022/09/23 00:45:33;;;;;;;20.03;11.97;;;;;;;;;;766191;183;919082;-59
2022/09/23 00:48:00;;;;;;;15.07;10.60;;;;;;;;;;756843;183;920916;-58
2022/09/23 00:50:34;;;;;;;19.45;10.20;;;;;;;;;;761582;183;919559;-59
2022/09/23 00:53:00;;;;;;;18.43;10.93;;;;;;;;;;759545;183;919438;-59
2022/09/23 00:55:26;;;;;;;17.60;11.10;;;;;;;;;;761453;183;919900;-60
2022/09/23 00:57:53;;;;;;;16.07;10.33;;;;;;;;;;759791;183;814514;-60
2022/09/23 01:00:17;;;;;;;19.83;11.90;;;;;;;;;;757891;184;916730;-59
2022/09/23 01:02:43;;;;;;;12.37;9.67;;;;;;;;;;770915;180;917635;-62
2022/09/23 01:05:09;;;;;;;14.80;10.52;;;;;;;;;;772640;179;919604;-60
2022/09/23 01:07:35;;;;;;;17.13;10.27;;;;;;;;;;768196;180;919771;-61
2022/09/23 01:10:01;;;;;;;21.53;11.10;;;;;;;;;;764333;184;818785;-62
2022/09/23 01:12:31;;;;;;;23.00;12.90;;;;;;;;;;766900;183;921983;-61
2022/09/23 01:15:16;;;;;;;12.67;8.27;;;;;;;;;;755401;183;937926;-61
2022/09/23 01:17:48;;;;;;;16.10;9.17;;;;;;;;;;753316;183;921358;-62
2022/09/23 01:20:20;;;;;;;18.50;10.67;;;;;;;;;;760172;184;915203;-62
2022/09/23 01:22:46;;;;;;;19.30;10.17;;;;;;;;;;755698;183;915781;-61
2022/09/23 01:25:18;;;;;;;64.30;12.63;;;;;;;;;;760209;184;814745;-62
2022/09/23 01:27:47;;;;;;;21.63;11.20;;;;;;;;;;766753;183;917961;-61
2022/09/23 01:30:15;;;;;;;30.90;10.93;;;;;;;;;;770619;177;916772;-62
2022/09/23 01:32:46;;;;;;;32.17;12.60;;;;;;;;;;771309;177;918410;-61
2022/09/23 01:35:29;;;;;;;37.03;12.77;;;;;;;;;;764968;182;917395;-61
2022/09/23 01:38:01;;;;;;;34.27;11.90;;;;;;;;;;745737;184;918439;-61
2022/09/23 01:40:29;;;;;;;74.20;15.70;;;;;;;;;;762961;183;918650;-61
2022/09/23 01:42:56;;;;;;;48.58;14.00;;;;;;;;;;771618;179;918737;-61
2022/09/23 01:45:23;;;;;;;41.73;13.17;;;;;;;;;;774557;178;928040;-60
2022/09/23 01:47:49;;;;;;;30.97;13.60;;;;;;;;;;770915;182;916411;-60
2022/09/23 01:52:46;;;;;;;30.07;11.20;;;;;;;;;;754824;183;920599;-61
2022/09/23 01:55:12;;;;;;;25.23;10.63;;;;;;;;;;755909;183;919099;-61
2022/09/23 01:57:39;;;;;;;33.63;11.57;;;;;;;;;;767627;183;818566;-61
2022/09/23 02:00:06;;;;;;;40.57;10.10;;;;;;;;;;755271;182;921355;-60
2022/09/23 02:02:32;;;;;;;34.77;11.00;;;;;;;;;;748790;184;919077;-60
2022/09/23 02:05:00;;;;;;;30.87;10.20;;;;;;;;;;755223;183;915297;-60
2022/09/23 02:07:26;;;;;;;35.00;10.73;;;;;;;;;;759322;183;919196;-60
2022/09/23 02:09:53;;;;;;;30.57;10.37;;;;;;;;;;761820;183;919320;-60
2022/09/23 02:12:19;;;;;;;22.80;9.40;;;;;;;;;;762791;183;919056;-60
2022/09/23 02:14:45;;;;;;;20.37;9.77;;;;;;;;;;766555;183;919063;-60
2022/09/23 02:17:11;;;;;;;26.63;9.30;;;;;;;;;;755858;183;903631;-60
2022/09/23 02:19:36;;;;;;;76.37;13.90;;;;;;;;;;768327;179;919061;-60
2022/09/23 02:22:02;;;;;;;151.97;17.27;;;;;;;;;;772690;183;816823;-60
2022/09/23 02:24:29;;;;;;;172.20;19.47;;;;;;;;;;756570;183;918587;-60
2022/09/23 02:26:55;;;;;;;199.53;24.60;;;;;;;;;;757282;183;817168;-60
2022/09/23 02:29:21;;;;;;;195.47;21.87;;;;;;;;;;758618;183;940257;-59
2022/09/23 02:31:46;;;;;;;162.40;21.00;;;;;;;;;;761215;183;919088;-58
2022/09/23 02:34:12;;;;;;;179.10;19.93;;;;;;;;;;751354;183;916460;-59
2022/09/23 02:36:39;;;;;;;172.27;20.70;;;;;;;;;;758502;181;919299;-59
2022/09/23 02:39:05;;;;;;;43.40;13.13;;;;;;;;;;760139;183;917573;-60
2022/09/23 02:41:32;;;;;;;35.87;11.00;;;;;;;;;;753497;183;927246;-59
2022/09/23 02:44:00;;;;;;;30.33;10.20;;;;;;;;;;756770;183;918736;-59
2022/09/23 02:46:26;;;;;;;27.60;10.03;;;;;;;;;;757294;182;919416;-59
2022/09/23 02:48:54;;;;;;;21.10;9.37;;;;;;;;;;769614;182;918288;-58
2022/09/23 02:51:19;;;;;;;15.30;8.40;;;;;;;;;;764166;180;917894;-58
2022/09/23 02:53:44;;;;;;;20.70;9.13;;;;;;;;;;774274;180;818298;-60
2022/09/23 02:56:12;;;;;;;47.77;12.57;;;;;;;;;;774487;180;918681;-60
2022/09/23 02:58:38;;;;;;;23.70;9.97;;;;;;;;;;770477;178;916153;-59
2022/09/23 03:01:05;;;;;;;58.33;11.83;;;;;;;;;;752777;184;917484;-59
2022/09/23 03:03:35;;;;;;;61.10;13.37;;;;;;;;;;767753;183;883805;-57
2022/09/23 03:06:00;;;;;;;112.37;14.80;;;;;;;;;;771528;182;916842;-59
2022/09/23 03:08:29;;;;;;;22.57;10.53;;;;;;;;;;773239;179;918882;-60
2022/09/23 03:11:07;;;;;;;16.10;9.67;;;;;;;;;;765331;180;919245;-59
2022/09/23 03:13:33;;;;;;;24.37;10.63;;;;;;;;;;751045;183;919433;-60
2022/09/23 03:15:59;;;;;;;31.50;20.40;;;;;;;;;;762032;183;816428;-60
2022/09/23 03:18:31;;;;;;;41.40;19.27;;;;;;;;;;767182;180;919033;-59
2022/09/23 03:20:57;;;;;;;118.37;51.57;;;;;;;;;;761467;182;917170;-60
2022/09/23 03:23:24;;;;;;;38.60;13.43;;;;;;;;;;759020;183;919391;-60
2022/09/23 03:25:52;;;;;;;43.80;19.40;;;;;;;;;;763290;183;921394;-60
2022/09/23 03:28:16;;;;;;;23.70;15.23;;;;;;;;;;760036;183;918860;-61
2022/09/23 03:30:42;;;;;;;72.30;12.57;;;;;;;;;;756350;183;919320;-61
2022/09/23 03:33:07;;;;;;;36.23;11.77;;;;;;;;;;760112;183;921312;-61
2022/09/23 03:36:48;;;;;;;37.07;11.93;;;;;;;;;;760822;183;823093;-61
2022/09/23 03:38:16;;;;;;;32.23;10.80;;;;;;;;;;750711;185;921057;-61
2022/09/23 03:40:42;;;;;;;74.10;15.13;;;;;;;;;;756465;183;818263;-60
2022/09/23 03:43:06;;;;;;;54.80;13.10;;;;;;;;;;765463;183;919607;-60
2022/09/23 03:45:32;;;;;;;53.83;16.30;;;;;;;;;;753880;183;918589;-60
2022/09/23 03:47:58;;;;;;;53.65;16.87;;;;;;;;;;758696;183;918906;-59
2022/09/23 03:50:23;;;;;;;22.90;12.23;;;;;;;;;;764164;183;919128;-59
2022/09/23 03:52:49;;;;;;;56.37;16.33;;;;;;;;;;755135;183;916306;-60
2022/09/23 03:55:15;;;;;;;68.87;17.63;;;;;;;;;;758768;183;925401;-60
2022/09/23 03:57:41;;;;;;;64.93;18.60;;;;;;;;;;757994;183;923840;-60
2022/09/23 04:00:08;;;;;;;128.50;19.37;;;;;;;;;;765088;183;918084;-60
2022/09/23 04:02:33;;;;;;;36.07;17.23;;;;;;;;;;753043;184;940982;-59
2022/09/23 04:04:59;;;;;;;50.15;22.75;;;;;;;;;;760005;183;820554;-59
2022/09/23 04:07:25;;;;;;;80.00;25.37;;;;;;;;;;766711;184;919473;-60
2022/09/23 04:09:51;;;;;;;80.20;35.17;;;;;;;;;;759074;184;919186;-60
2022/09/23 04:12:17;;;;;;;121.13;30.40;;;;;;;;;;758165;183;919137;-60
2022/09/23 04:14:42;;;;;;;92.10;17.43;;;;;;;;;;764370;183;919721;-59
2022/09/23 04:17:08;;;;;;;87.93;22.23;;;;;;;;;;759004;183;912465;-60
2022/09/23 04:19:34;;;;;;;90.07;18.07;;;;;;;;;;759310;183;911797;-60
2022/09/23 04:22:00;;;;;;;88.93;27.10;;;;;;;;;;755970;183;921599;-60
2022/09/23 04:24:26;;;;;;;108.37;24.40;;;;;;;;;;748355;184;715277;-59
2022/09/23 04:26:52;;;;;;;62.30;21.93;;;;;;;;;;762640;179;915734;-60
2022/09/23 04:29:18;;;;;;;82.17;19.27;;;;;;;;;;759373;183;919012;-60
2022/09/23 04:31:43;;;;;;;102.97;19.77;;;;;;;;;;764263;183;917285;-60
2022/09/23 04:34:09;;;;;;;70.87;17.07;;;;;;;;;;757476;183;935778;-59
2022/09/23 04:36:35;;;;;;;89.37;19.43;;;;;;;;;;756662;183;815352;-60
2022/09/23 04:39:01;;;;;;;50.93;15.17;;;;;;;;;;761704;183;916977;-60
2022/09/23 04:41:27;;;;;;;74.60;20.07;;;;;;;;;;754746;183;916816;-58
2022/09/23 04:43:53;;;;;;;97.32;22.13;;;;;;;;;;754542;184;908501;-60
2022/09/23 04:46:19;;;;;;;110.18;18.23;;;;;;;;;;759989;183;819208;-60
2022/09/23 04:48:45;;;;;;;83.77;29.27;;;;;;;;;;755679;186;917992;-59
2022/09/23 04:51:11;;;;;;;128.83;29.20;;;;;;;;;;742561;185;924346;-59
2022/09/23 04:53:37;;;;;;;129.13;33.77;;;;;;;;;;756637;183;918524;-60
2022/09/23 04:56:03;;;;;;;81.77;15.90;;;;;;;;;;760823;183;817806;-58
2022/09/23 04:58:29;;;;;;;79.67;16.40;;;;;;;;;;754338;183;919022;-59
2022/09/23 05:00:56;;;;;;;78.23;15.10;;;;;;;;;;755385;181;920601;-58
2022/09/23 05:03:22;;;;;;;110.17;19.50;;;;;;;;;;763819;183;817518;-58
2022/09/23 05:05:47;;;;;;;86.50;16.90;;;;;;;;;;770715;180;919129;-59
2022/09/23 05:08:13;;;;;;;60.23;17.30;;;;;;;;;;773014;177;918621;-60
2022/09/23 05:10:39;;;;;;;131.30;18.57;;;;;;;;;;761940;182;918822;-60
2022/09/23 05:13:05;;;;;;;113.60;16.67;;;;;;;;;;766923;182;919655;-59
2022/09/23 05:15:31;;;;;;;83.97;14.43;;;;;;;;;;759648;183;918407;-58
2022/09/23 05:17:58;;;;;;;54.80;14.70;;;;;;;;;;756610;183;919265;-59
2022/09/23 05:20:23;;;;;;;77.57;15.13;;;;;;;;;;759983;183;919397;-59
2022/09/23 05:22:48;;;;;;;79.40;16.30;;;;;;;;;;758080;183;953175;-59
2022/09/23 05:25:14;;;;;;;41.27;14.93;;;;;;;;;;756738;183;784214;-59
2022/09/23 05:27:41;;;;;;;58.87;23.90;;;;;;;;;;762605;183;826906;-59
2022/09/23 05:30:07;;;;;;;42.00;16.63;;;;;;;;;;756271;183;918629;-57
2022/09/23 05:32:33;;;;;;;73.63;16.37;;;;;;;;;;755442;183;928081;-58
2022/09/23 05:34:58;;;;;;;24.10;11.37;;;;;;;;;;762157;183;913275;-58
2022/09/23 05:37:24;;;;;;;29.10;13.00;;;;;;;;;;758396;183;817988;-60
2022/09/23 05:39:50;;;;;;;36.53;13.90;;;;;;;;;;761105;183;918388;-58
2022/09/23 05:42:17;;;;;;;43.70;14.70;;;;;;;;;;763835;180;918950;-59
2022/09/23 05:44:43;;;;;;;40.23;22.00;;;;;;;;;;765339;183;714272;-59
2022/09/23 05:47:08;;;;;;;49.37;22.17;;;;;;;;;;757342;183;918013;-59
2022/09/23 05:49:35;;;;;;;46.83;19.80;;;;;;;;;;755250;183;918668;-59
2022/09/23 05:52:00;;;;;;;56.77;18.53;;;;;;;;;;762066;183;815181;-58
2022/09/23 05:54:26;;;;;;;53.87;18.20;;;;;;;;;;758187;183;918576;-59
2022/09/23 05:56:52;;;;;;;61.13;19.20;;;;;;;;;;756123;184;919511;-60
2022/09/23 05:59:18;;;;;;;46.57;19.60;;;;;;;;;;762891;183;727416;-59
2022/09/23 06:01:44;;;;;;;80.63;17.70;;;;;;;;;;754922;183;915610;-59
2022/09/23 06:04:09;;;;;;;80.43;25.40;;;;;;;;;;757122;183;919629;-59
2022/09/23 06:06:35;;;;;;;113.30;32.53;;;;;;;;;;759213;183;916576;-59
2022/09/23 06:09:01;;;;;;;50.27;18.97;;;;;;;;;;758270;183;789139;-60
2022/09/23 06:11:30;;;;;;;29.90;17.87;;;;;;;;;;755879;183;918494;-59
2022/09/23 06:13:59;;;;;;;76.97;18.50;;;;;;;;;;754666;183;917060;-59
2022/09/23 06:16:22;;;;;;;43.10;18.30;;;;;;;;;;761076;183;911024;-58
2022/09/23 06:18:47;;;;;;;46.20;20.33;;;;;;;;;;760157;183;917894;-58
2022/09/23 06:21:13;;;;;;;48.80;22.83;;;;;;;;;;759381;181;915279;-58
2022/09/23 06:23:39;;;;;;;94.62;41.90;;;;;;;;;;760482;183;918865;-60
2022/09/23 06:26:05;;;;;;;51.73;34.60;;;;;;;;;;760363;183;819159;-58
2022/09/23 06:28:32;;;;;;;39.60;23.27;;;;;;;;;;758357;183;914657;-59
2022/09/23 06:30:58;;;;;;;24.77;14.47;;;;;;;;;;759524;182;918690;-59
2022/09/23 06:33:25;;;;;;;31.23;18.90;;;;;;;;;;761391;183;918758;-59
2022/09/23 06:35:50;;;;;;;26.30;17.00;;;;;;;;;;758212;181;912029;-57
2022/09/23 06:38:16;;;;;;;33.47;19.87;;;;;;;;;;776435;179;629630;-57
2022/09/23 06:40:42;;;;;;;29.23;18.40;;;;;;;;;;764222;183;624438;-57
2022/09/23 06:43:07;;;;;;;38.43;25.57;;;;;;;;;;761257;183;863908;-58
2022/09/23 06:45:33;;;;;;;44.87;23.00;;;;;;;;;;755224;183;918964;-57
2022/09/23 06:48:00;;;;;;;36.20;21.53;;;;;;;;;;763762;183;919184;-57
2022/09/23 06:50:25;;;;;;;37.23;21.17;;;;;;;;;;756187;183;916523;-58
2022/09/23 06:52:51;;;;;;;53.33;28.27;;;;;;;;;;756796;183;911536;-59
2022/09/23 06:55:17;;;;;;;47.27;24.90;;;;;;;;;;756896;183;921452;-59
2022/09/23 06:57:43;;;;;;;42.00;23.30;;;;;;;;;;761948;183;921826;-58
2022/09/23 07:00:09;;;;;;;44.57;25.10;;;;;;;;;;754456;183;919118;-58
2022/09/23 07:02:35;;;;;;;39.40;25.80;;;;;;;;;;760587;184;625087;-64
2022/09/23 07:05:01;;;;;;;38.13;22.53;;;;;;;;;;764336;183;638103;-57
2022/09/23 07:07:26;;;;;;;33.13;20.10;;;;;;;;;;759394;183;918936;-58
2022/09/23 07:09:52;;;;;;;38.83;19.70;;;;;;;;;;757914;183;918601;-59
2022/09/23 07:12:19;;;;;;;35.00;20.57;;;;;;;;;;764030;183;918246;-58
2022/09/23 07:14:44;;;;;;;35.17;20.77;;;;;;;;;;759974;183;707606;-57
2022/09/23 07:17:11;;;;;;;52.37;33.10;;;;;;;;;;758089;183;918649;-56
2022/09/23 07:19:36;;;;;;;44.73;24.10;;;;;;;;;;758066;183;912890;-57
2022/09/23 07:22:02;;;;;;;46.53;26.20;;;;;;;;;;761884;183;916284;-57
2022/09/23 07:24:27;;;;;;;40.23;22.87;;;;;;;;;;756739;183;924502;-58
2022/09/23 07:26:54;;;;;;;41.40;23.12;;;;;;;;;;754892;184;919170;-58
2022/09/23 07:29:19;;;;;;;35.03;21.60;;;;;;;;;;759969;183;875857;-55
2022/09/23 07:31:45;;;;;;;42.67;20.80;;;;;;;;;;754551;183;918374;-56
2022/09/23 07:34:11;;;;;;;42.30;23.30;;;;;;;;;;756344;183;918895;-58
2022/09/23 07:36:39;;;;;;;41.53;21.67;;;;;;;;;;763684;183;918986;-55
2022/09/23 07:39:03;;;;;;;41.20;21.13;;;;;;;;;;759958;183;852506;-57
2022/09/23 07:41:29;;;;;;;40.00;22.70;;;;;;;;;;757582;183;918752;-59
2022/09/23 07:43:57;;;;;;;40.43;23.63;;;;;;;;;;756715;183;913563;-58
2022/09/23 07:46:20;;;;;;;37.90;24.30;;;;;;;;;;769937;180;823938;-56
2022/09/23 07:48:46;;;;;;;34.17;21.90;;;;;;;;;;766678;177;820555;-57
2022/09/23 07:51:12;;;;;;;31.67;21.43;;;;;;;;;;753009;183;920405;-61
2022/09/23 07:53:38;;;;;;;32.27;20.23;;;;;;;;;;766237;183;617153;-60
2022/09/23 07:56:05;;;;;;;49.73;26.47;;;;;;;;;;758462;183;819058;-57
2022/09/23 07:58:30;;;;;;;34.23;22.80;;;;;;;;;;757916;184;919431;-57
2022/09/23 08:01:04;;;;;;;46.70;31.03;;;;;;;;;;761526;183;922611;-59
2022/09/23 08:03:30;;;;;;;31.77;20.93;;;;;;;;;;777733;180;711378;-59
2022/09/23 08:06:03;;;;;;;28.50;18.87;;;;;;;;;;764745;180;918674;-57
2022/09/23 08:08:28;;;;;;;27.33;17.90;;;;;;;;;;755641;183;919909;-57
2022/09/23 08:10:54;;;;;;;29.13;18.00;;;;;;;;;;759493;183;918121;-58
2022/09/23 08:13:20;;;;;;;27.00;17.27;;;;;;;;;;752474;183;918672;-58
2022/09/23 08:15:45;;;;;;;23.90;15.57;;;;;;;;;;756914;183;938161;-57
2022/09/23 08:18:11;;;;;;;22.07;16.40;;;;;;;;;;754998;183;919661;-60
2022/09/23 08:20:43;;;;;;;19.80;14.70;;;;;;;;;;759607;183;923379;-60
2022/09/23 08:23:09;;;;;;;17.00;13.47;;;;;;;;;;756709;183;919408;-59
2022/09/23 08:25:35;;;;;;;18.10;12.87;;;;;;;;;;751734;183;921768;-59
2022/09/23 08:28:01;;;;;;;14.73;11.30;;;;;;;;;;760211;183;921652;-59
2022/09/23 08:30:27;;;;;;;13.47;8.73;;;;;;;;;;757637;183;923526;-57
2022/09/23 08:32:53;;;;;;;12.70;9.53;;;;;;;;;;760773;183;818865;-60
2022/09/23 08:35:19;;;;;;;13.60;9.47;;;;;;;;;;758021;182;918331;-56
2022/09/23 08:37:44;;;;;;;12.00;8.53;;;;;;;;;;759614;184;918512;-56
2022/09/23 08:40:10;;;;;;;13.07;8.17;;;;;;;;;;756342;183;918809;-56
2022/09/23 08:42:36;;;;;;;10.77;8.90;;;;;;;;;;757852;182;819488;-57
2022/09/23 08:45:02;;;;;;;11.70;7.33;;;;;;;;;;764808;182;915739;-56
2022/09/23 08:47:29;;;;;;;11.10;8.03;;;;;;;;;;759778;181;917734;-56
2022/09/23 08:50:00;;;;;;;10.43;7.30;;;;;;;;;;773565;177;916830;-55
2022/09/23 08:52:28;;;;;;;9.67;7.97;;;;;;;;;;766865;180;917533;-57
2022/09/23 08:54:54;;;;;;;8.60;6.40;;;;;;;;;;767182;181;919638;-56
2022/09/23 08:57:25;;;;;;;9.80;7.47;;;;;;;;;;758131;184;816656;-54
2022/09/23 08:59:50;;;;;;;9.20;7.00;;;;;;;;;;757949;183;817849;-55
2022/09/23 09:02:17;;;;;;;14.17;9.10;;;;;;;;;;761561;181;919872;-56
2022/09/23 09:04:43;;;;;;;9.63;6.93;;;;;;;;;;758357;183;920860;-56
2022/09/23 09:07:12;;;;;;;11.70;7.50;;;;;;;;;;756017;183;1023323;-55
2022/09/23 09:09:38;;;;;;;10.83;8.13;;;;;;;;;;759697;183;628055;-56
2022/09/23 09:12:19;;;;;;;12.97;7.30;;;;;;;;;;760011;183;919293;-56
2022/09/23 09:14:48;;;;;;;12.07;9.00;;;;;;;;;;763227;183;919555;-56
2022/09/23 09:17:16;;;;;;;11.03;8.70;;;;;;;;;;758055;183;816679;-58
2022/09/23 09:19:46;;;;;;;11.60;8.63;;;;;;;;;;758375;183;815341;-56
2022/09/23 09:22:11;;;;;;;14.40;9.13;;;;;;;;;;755931;183;820501;-57
2022/09/23 09:24:37;;;;;;;13.30;9.10;;;;;;;;;;762057;183;717135;-56
2022/09/23 09:27:04;;;;;;;10.53;8.57;;;;;;;;;;754647;183;823776;-57
2022/09/23 09:29:31;;;;;;;13.90;9.87;;;;;;;;;;757892;183;913479;-56
2022/09/23 09:31:58;;;;;;;14.80;8.87;;;;;;;;;;763399;183;822607;-56
2022/09/23 09:34:40;;;;;;;11.93;8.40;;;;;;;;;;758861;183;918257;-56
2022/09/23 09:37:16;;;;;;;10.73;8.03;;;;;;;;;;755972;182;837416;-56
2022/09/23 09:39:41;;;;;;;12.07;7.53;;;;;;;;;;757659;183;921539;-57
2022/09/23 09:42:07;;;;;;;9.40;6.80;;;;;;;;;;757568;183;821940;-56
2022/09/23 09:44:36;;;;;;;11.37;6.17;;;;;;;;;;761392;183;918702;-55
2022/09/23 09:47:08;;;;;;;8.13;6.50;;;;;;;;;;757370;183;693978;-56
2022/09/23 09:49:33;;;;;;;8.33;5.87;;;;;;;;;;756919;183;816817;-57
2022/09/23 09:52:05;;;;;;;8.70;6.43;;;;;;;;;;758683;183;917426;-55
2022/09/23 09:54:31;;;;;;;9.13;6.63;;;;;;;;;;763903;182;712493;-55
2022/09/23 09:56:57;;;;;;;9.17;6.50;;;;;;;;;;756147;183;909695;-54
2022/09/23 09:59:23;;;;;;;9.40;6.63;;;;;;;;;;758902;183;822747;-55
2022/09/23 10:01:49;;;;;;;11.27;6.70;;;;;;;;;;759956;183;816256;-55
2022/09/23 10:04:22;;;;;;;9.30;6.70;;;;;;;;;;771379;181;795083;-54
2022/09/23 10:06:55;;;;;;;10.23;5.90;;;;;;;;;;767070;180;915002;-54
2022/09/23 10:09:21;;;;;;;6.60;4.97;;;;;;;;;;770737;180;861847;-54
2022/09/23 10:12:02;;;;;;;6.97;4.50;;;;;;;;;;763991;180;821933;-55
2022/09/23 10:14:29;;;;;;;6.30;4.80;;;;;;;;;;759825;183;814922;-55
2022/09/23 10:17:00;;;;;;;4.50;3.13;;;;;;;;;;760606;183;808310;-55
2022/09/23 10:19:26;;;;;;;6.03;2.80;;;;;;;;;;753701;182;920629;-54
2022/09/23 10:21:55;;;;;;;6.47;3.30;;;;;;;;;;757589;183;816333;-55
2022/09/23 10:24:19;;;;;;;4.10;2.83;;;;;;;;;;763684;183;614434;-54
2022/09/23 10:26:47;;;;;;;5.90;3.97;;;;;;;;;;756590;182;745489;-55
2022/09/23 10:29:16;;;;;;;4.63;3.37;;;;;;;;;;757258;183;803141;-55
2022/09/23 10:31:44;;;;;;;5.00;3.40;;;;;;;;;;756494;183;919051;-54
2022/09/23 10:34:14;;;;;;;5.67;3.80;;;;;;;;;;764985;183;616364;-54
2022/09/23 10:36:41;;;;;;;5.60;3.70;;;;;;;;;;759899;183;917970;-57
2022/09/23 10:46:58;;;;;;;6.33;4.10;;;;;;;;;;772659;180;647800;-52
2022/09/23 10:49:28;;;;;;;6.67;4.40;;;;;;;;;;772684;180;623618;-54
2022/09/23 10:51:54;;;;;;;4.60;3.43;;;;;;;;;;760047;183;830179;-55
2022/09/23 10:54:27;;;;;;;5.93;3.80;;;;;;;;;;758511;183;816026;-54
2022/09/23 10:56:53;;;;;;;5.83;3.53;;;;;;;;;;758406;183;815956;-54
2022/09/23 10:59:20;;;;;;;4.93;3.67;;;;;;;;;;760506;183;807734;-54
2022/09/23 11:01:53;;;;;;;7.37;3.47;;;;;;;;;;757525;183;817590;-54
2022/09/23 11:04:24;;;;;;;4.00;2.80;;;;;;;;;;772917;180;758860;-53
2022/09/23 11:06:52;;;;;;;6.03;3.47;;;;;;;;;;771407;179;921240;-53
2022/09/23 11:09:30;;;;;;;4.73;2.93;;;;;;;;;;775728;177;921040;-53
2022/09/23 11:11:57;;;;;;;4.57;3.23;;;;;;;;;;768256;181;663288;-53
2022/09/23 11:14:22;;;;;;;4.67;3.00;;;;;;;;;;757189;183;916793;-54
2022/09/23 11:16:53;;;;;;;3.83;2.90;;;;;;;;;;758653;183;917514;-53
2022/09/23 11:19:25;;;;;;;6.73;4.60;;;;;;;;;;758017;183;937187;-54
2022/09/23 11:22:07;;;;;;;8.90;3.30;;;;;;;;;;742568;184;816960;-54
2022/09/23 11:24:49;;;;;;;4.90;2.13;;;;;;;;;;764173;181;920000;-53
2022/09/23 11:27:14;;;;;;;4.03;2.80;;;;;;;;;;766129;178;892846;-54
2022/09/23 11:29:55;;;;;;;5.23;3.37;;;;;;;;;;754940;183;920478;-55
2022/09/23 11:32:21;;;;;;;3.77;2.10;;;;;;;;;;758721;183;816138;-54
2022/09/23 11:34:50;;;;;;;3.60;2.30;;;;;;;;;;756383;183;919259;-54
2022/09/23 11:37:16;;;;;;;4.70;2.67;;;;;;;;;;761875;183;914561;-55
2022/09/23 11:39:43;;;;;;;3.90;2.30;;;;;;;;;;756166;180;834315;-54
2022/09/23 11:42:11;;;;;;;4.80;2.93;;;;;;;;;;768258;177;766244;-54
2022/09/23 11:44:35;;;;;;;3.20;2.33;;;;;;;;;;757693;183;815410;-54
2022/09/23 11:47:02;;;;;;;3.57;2.47;;;;;;;;;;771525;180;818027;-54
2022/09/23 11:49:29;;;;;;;2.83;1.87;;;;;;;;;;769372;180;819938;-54
2022/09/23 11:52:06;;;;;;;4.97;1.63;;;;;;;;;;758713;183;818036;-54
2022/09/23 11:54:35;;;;;;;3.83;2.30;;;;;;;;;;754816;183;917567;-54
2022/09/23 11:57:01;;;;;;;4.10;1.93;;;;;;;;;;763849;183;869127;-54
2022/09/23 11:59:27;;;;;;;3.70;2.43;;;;;;;;;;756535;183;926217;-54
2022/09/23 12:01:53;;;;;;;3.53;2.27;;;;;;;;;;755252;183;920061;-54
2022/09/23 12:04:25;;;;;;;5.37;2.10;;;;;;;;;;758807;183;919493;-54
2022/09/23 12:06:52;;;;;;;4.23;1.97;;;;;;;;;;776139;180;814966;-54
2022/09/23 12:09:18;;;;;;;4.00;2.00;;;;;;;;;;763238;180;919856;-54
2022/09/23 12:11:46;;;;;;;3.10;1.80;;;;;;;;;;756371;183;914859;-54
2022/09/23 12:14:13;;;;;;;4.57;2.27;;;;;;;;;;759140;183;883154;-54
2022/09/23 12:16:56;;;;;;;3.03;1.93;;;;;;;;;;758767;183;878015;-54
2022/09/23 12:19:22;;;;;;;4.90;2.20;;;;;;;;;;760497;182;819840;-53
2022/09/23 12:22:01;;;;;;;11.03;3.40;;;;;;;;;;756989;183;827338;-53
2022/09/23 12:24:44;;;;;;;4.23;2.40;;;;;;;;;;756827;183;918809;-53
2022/09/23 12:27:10;;;;;;;3.87;2.73;;;;;;;;;;757115;183;913773;-54
2022/09/23 12:29:36;;;;;;;3.67;2.27;;;;;;;;;;764350;183;813763;-54
2022/09/23 12:32:08;;;;;;;3.40;2.60;;;;;;;;;;760116;180;917205;-54
2022/09/23 12:34:28;;;;;;;3.30;2.00;;;;;;;;;;764161;177;918261;-54
2022/09/23 12:36:54;;;;;;;6.23;4.60;;;;;;;;;;760609;183;813268;-54
2022/09/23 12:39:20;;;;;;;3.50;2.63;;;;;;;;;;761261;183;910813;-53
2022/09/23 12:41:46;;;;;;;4.63;2.70;;;;;;;;;;757576;183;916174;-53
2022/09/23 12:44:26;;;;;;;4.07;2.13;;;;;;;;;;760617;183;818477;-54
2022/09/23 12:46:58;;;;;;;3.53;2.10;;;;;;;;;;755737;183;916373;-54
2022/09/23 12:49:24;;;;;;;5.30;3.10;;;;;;;;;;763841;183;920021;-53
2022/09/23 12:52:06;;;;;;;3.37;1.83;;;;;;;;;;756257;183;929434;-54
2022/09/23 12:54:32;;;;;;;3.80;1.97;;;;;;;;;;757910;183;920760;-54
2022/09/23 12:56:58;;;;;;;3.40;2.23;;;;;;;;;;757680;183;917495;-54
2022/09/23 12:59:24;;;;;;;8.77;2.33;;;;;;;;;;755879;184;919390;-54
2022/09/23 13:01:50;;;;;;;4.10;2.40;;;;;;;;;;754725;184;912385;-54
2022/09/23 13:07:04;;;;;;;3.17;1.73;;;;;;;;;;757111;181;917463;-54
2022/09/23 13:09:30;;;;;;;2.75;1.50;;;;;;;;;;757036;183;919577;-54
2022/09/23 13:11:58;;;;;;;3.47;1.80;;;;;;;;;;768266;183;816823;-54
2022/09/23 13:14:23;;;;;;;2.90;1.30;;;;;;;;;;771900;180;943671;-54
2022/09/23 13:16:49;;;;;;;2.83;1.65;;;;;;;;;;770629;178;918293;-54
2022/09/23 13:19:20;;;;;;;3.43;1.80;;;;;;;;;;771446;180;920672;-55
2022/09/23 13:21:50;;;;;;;3.63;1.70;;;;;;;;;;763411;183;857835;-55
2022/09/23 13:24:17;;;;;;;3.00;1.97;;;;;;;;;;754594;184;914935;-54
2022/09/23 13:26:45;;;;;;;3.43;1.90;;;;;;;;;;754734;183;920850;-55
2022/09/23 13:29:12;;;;;;;3.10;2.10;;;;;;;;;;757245;182;919736;-55
2022/09/23 13:31:38;;;;;;;5.67;4.90;;;;;;;;;;762358;183;918696;-55
2022/09/23 13:34:04;;;;;;;4.60;2.40;;;;;;;;;;757323;183;918416;-55
2022/09/23 13:36:35;;;;;;;4.82;2.83;;;;;;;;;;758192;184;920814;-55
2022/09/23 13:39:11;;;;;;;4.40;1.60;;;;;;;;;;765959;184;919171;-55
2022/09/23 13:41:37;;;;;;;2.60;1.60;;;;;;;;;;765262;183;914493;-55
2022/09/23 13:44:03;;;;;;;4.33;1.63;;;;;;;;;;757733;184;919074;-55
2022/09/23 13:46:29;;;;;;;2.40;1.70;;;;;;;;;;758768;183;918670;-54
2022/09/23 13:48:55;;;;;;;4.80;3.50;;;;;;;;;;763821;183;916022;-55
2022/09/23 13:51:23;;;;;;;2.80;2.40;;;;;;;;;;758102;182;920977;-54
2022/09/23 13:53:51;;;;;;;5.37;2.10;;;;;;;;;;755632;183;919419;-55
2022/09/23 13:56:17;;;;;;;4.47;1.90;;;;;;;;;;758591;183;866395;-54
2022/09/23 13:58:43;;;;;;;2.30;1.60;;;;;;;;;;763345;184;743568;-54
2022/09/23 14:01:09;;;;;;;3.23;1.80;;;;;;;;;;756537;184;899224;-55
2022/09/23 14:03:34;;;;;;;3.13;1.60;;;;;;;;;;757389;184;920645;-54
2022/09/23 14:06:00;;;;;;;2.63;1.43;;;;;;;;;;760853;183;921192;-57
2022/09/23 14:08:26;;;;;;;2.67;1.50;;;;;;;;;;757345;183;919014;-55
2022/09/23 14:10:52;;;;;;;3.67;1.60;;;;;;;;;;759757;183;815950;-57
2022/09/23 14:13:19;;;;;;;3.20;1.80;;;;;;;;;;758977;182;919551;-54
2022/09/23 14:15:45;;;;;;;2.80;1.33;;;;;;;;;;771650;180;921451;-54
2022/09/23 14:18:10;;;;;;;2.83;1.70;;;;;;;;;;772350;177;910719;-56
2022/09/23 14:20:42;;;;;;;4.33;1.60;;;;;;;;;;768365;180;920740;-57
2022/09/23 14:23:09;;;;;;;3.17;1.70;;;;;;;;;;767272;183;826520;-54
2022/09/23 14:25:35;;;;;;;2.33;1.40;;;;;;;;;;758197;183;814835;-54
2022/09/23 14:28:01;;;;;;;3.10;1.70;;;;;;;;;;755049;184;919219;-56